createdAt,value
2023-04-03T00:01:03.396Z,99796.59
2023-04-03T00:03:30.078Z,99792.81
2023-04-03T00:05:57.119Z,99788.88
2023-04-03T00:08:23.755Z,99789.72
2023-04-03T00:10:50.913Z,99788.66
2023-04-03T00:13:58.256Z,99790.28
2023-04-03T00:16:52.920Z,99792.81
2023-04-03T00:19:31.604Z,99796.88
2023-04-03T00:21:58.268Z,99793.25
2023-04-03T00:24:25.012Z,99798.22
2023-04-03T00:26:51.716Z,99794.91
2023-04-03T00:29:18.301Z,99807.69
2023-04-03T00:31:44.914Z,99792.12
2023-04-03T00:34:11.524Z,99795.34
2023-04-03T00:36:38.502Z,99803.75
2023-04-03T00:39:05.578Z,99801.63
2023-04-03T00:41:32.935Z,99801.25
2023-04-03T00:47:49.846Z,99802.37
2023-04-03T00:50:16.706Z,99810.03
2023-04-03T00:53:01.822Z,99805.13
2023-04-03T00:55:28.702Z,99802.41
2023-04-03T00:57:56.907Z,99804.28
2023-04-03T01:00:25.114Z,99808.81
2023-04-03T01:02:53.104Z,99804.78
2023-04-03T01:05:21.551Z,99811.78
2023-04-03T01:07:50.481Z,99812.25
2023-04-03T01:10:20.532Z,99810.13
2023-04-03T01:16:45.529Z,99810.00
2023-04-03T01:32:56.126Z,99818.56
2023-04-03T01:35:23.224Z,99810.56
2023-04-03T01:37:49.986Z,99817.78
2023-04-03T01:40:16.683Z,99814.31
2023-04-03T01:42:43.443Z,99812.16
2023-04-03T01:45:10.802Z,99812.06
2023-04-03T01:48:11.614Z,99817.00
2023-04-03T01:51:09.522Z,99818.97
2023-04-03T01:53:36.120Z,99826.59
2023-04-03T01:56:02.743Z,99817.16
2023-04-03T01:58:29.287Z,99822.91
2023-04-03T02:00:55.953Z,99821.44
2023-04-03T02:03:24.607Z,99825.13
2023-04-03T02:05:51.263Z,99825.06
2023-04-03T02:08:19.063Z,99824.84
2023-04-03T02:10:48.281Z,99821.41
2023-04-03T02:13:14.836Z,99825.91
2023-04-03T02:15:41.610Z,99830.69
2023-04-03T02:18:08.621Z,99830.38
2023-04-03T02:20:35.573Z,99833.16
2023-04-03T02:23:03.374Z,99836.47
2023-04-03T02:25:31.960Z,99837.34
2023-04-03T02:27:58.534Z,99838.25
2023-04-03T02:30:25.205Z,99840.81
2023-04-03T02:32:51.877Z,99839.09
2023-04-03T02:35:18.635Z,99844.88
2023-04-03T02:37:45.346Z,99838.06
2023-04-03T02:40:12.554Z,99843.31
2023-04-03T02:42:39.257Z,99841.06
2023-04-03T02:45:06.596Z,99839.31
2023-04-03T02:47:33.219Z,99842.22
2023-04-03T02:49:59.763Z,99845.22
2023-04-03T02:55:01.615Z,99839.31
2023-04-03T02:57:28.248Z,99845.53
2023-04-03T02:59:54.848Z,99845.91
2023-04-03T03:03:12.662Z,99846.44
2023-04-03T03:06:05.494Z,99844.75
2023-04-03T03:08:32.300Z,99848.00
2023-04-03T03:10:59.274Z,99847.94
2023-04-03T03:13:26.008Z,99853.88
2023-04-03T03:15:52.844Z,99846.78
2023-04-03T03:18:19.784Z,99861.81
2023-04-03T03:21:05.581Z,99861.97
2023-04-03T03:23:33.243Z,99857.75
2023-04-03T03:26:03.208Z,99849.03
2023-04-03T03:28:29.813Z,99865.41
2023-04-03T03:30:57.445Z,99858.09
2023-04-03T03:34:14.477Z,99856.09
2023-04-03T03:36:56.709Z,99857.81
2023-04-03T03:39:23.828Z,99851.31
2023-04-03T03:41:50.956Z,99854.41
2023-04-03T03:44:17.543Z,99848.00
2023-04-03T03:46:44.176Z,99851.75
2023-04-03T03:49:11.022Z,99846.34
2023-04-03T03:54:12.987Z,99851.44
2023-04-03T03:56:39.726Z,99853.63
2023-04-03T03:59:06.678Z,99850.94
2023-04-03T04:01:33.633Z,99855.81
2023-04-03T04:04:00.423Z,99854.25
2023-04-03T04:10:32.753Z,99843.09
2023-04-03T04:12:59.305Z,99845.19
2023-04-03T04:15:26.941Z,99845.31
2023-04-03T04:17:54.463Z,99852.25
2023-04-03T04:20:21.582Z,99853.28
2023-04-03T04:22:48.302Z,99851.19
2023-04-03T04:25:14.948Z,99861.72
2023-04-03T04:27:41.968Z,99858.97
2023-04-03T04:30:09.519Z,99862.09
2023-04-03T04:32:38.229Z,99863.44
2023-04-03T04:35:06.036Z,99864.66
2023-04-03T04:37:35.789Z,99866.50
2023-04-03T04:40:21.126Z,99865.78
2023-04-03T04:42:47.941Z,99873.09
2023-04-03T04:45:16.008Z,99866.44
2023-04-03T04:47:42.997Z,99870.53
2023-04-03T04:50:10.396Z,99871.28
2023-04-03T04:52:39.791Z,99866.44
2023-04-03T04:55:06.926Z,99876.22
2023-04-03T04:57:33.526Z,99876.66
2023-04-03T05:00:00.181Z,99877.06
2023-04-03T05:02:26.934Z,99878.19
2023-04-03T05:04:53.754Z,99880.66
2023-04-03T05:07:20.462Z,99883.94
2023-04-03T05:09:47.257Z,99876.63
2023-04-03T05:12:13.862Z,99886.72
2023-04-03T05:14:43.099Z,99889.19
2023-04-03T05:17:09.744Z,99890.53
2023-04-03T05:19:36.281Z,99878.78
2023-04-03T05:22:03.691Z,99882.66
2023-04-03T05:24:30.264Z,99878.19
2023-04-03T05:26:56.819Z,99882.66
2023-04-03T05:29:23.606Z,99882.34
2023-04-03T05:31:51.403Z,99881.88
2023-04-03T05:34:18.497Z,99880.28
2023-04-03T05:36:45.423Z,99881.66
2023-04-03T05:39:12.298Z,99885.97
2023-04-03T05:41:38.845Z,99890.28
2023-04-03T05:44:05.533Z,99889.34
2023-04-03T05:46:32.173Z,99890.31
2023-04-03T05:48:58.765Z,99889.75
2023-04-03T05:51:29.618Z,99894.44
2023-04-03T05:54:19.216Z,99895.84
2023-04-03T05:56:47.971Z,99898.94
2023-04-03T05:59:14.560Z,99891.56
2023-04-03T06:01:41.570Z,99896.09
2023-04-03T06:04:09.993Z,99904.22
2023-04-03T06:06:49.251Z,99898.50
2023-04-03T06:09:17.147Z,99906.22
2023-04-03T06:11:43.829Z,99909.87
2023-04-03T06:14:11.152Z,99908.34
2023-04-03T06:16:39.716Z,99905.38
2023-04-03T06:19:08.719Z,99914.81
2023-04-03T06:21:36.756Z,99915.06
2023-04-03T06:24:07.267Z,99912.53
2023-04-03T06:26:34.855Z,99920.97
2023-04-03T06:29:01.596Z,99915.84
2023-04-03T06:31:28.254Z,99917.16
2023-04-03T06:33:54.821Z,99912.16
2023-04-03T06:36:22.173Z,99912.00
2023-04-03T06:38:49.469Z,99922.91
2023-04-03T06:41:17.413Z,99922.69
2023-04-03T06:43:47.162Z,99919.50
2023-04-03T06:46:18.611Z,99929.72
2023-04-03T06:48:45.898Z,99930.28
2023-04-03T06:51:23.400Z,99934.69
2023-04-03T06:53:51.595Z,99934.94
2023-04-03T06:56:28.915Z,99940.41
2023-04-03T06:58:58.053Z,99938.19
2023-04-03T07:01:27.275Z,99948.03
2023-04-03T07:03:54.657Z,99943.06
2023-04-03T07:10:13.534Z,99960.22
2023-04-03T07:29:55.605Z,99958.50
2023-04-03T07:32:23.555Z,99954.84
2023-04-03T07:34:58.326Z,99956.72
2023-04-03T07:37:33.770Z,99956.69
2023-04-03T07:40:04.530Z,99952.97
2023-04-03T07:42:32.275Z,99962.69
2023-04-03T07:45:18.726Z,99951.75
2023-04-03T07:47:45.480Z,99965.56
2023-04-03T07:50:12.452Z,99965.19
2023-04-03T07:52:40.610Z,99956.97
2023-04-03T09:01:17.857Z,100002.69
2023-04-03T09:03:44.570Z,99998.88
2023-04-03T09:25:34.413Z,100004.31
2023-04-03T09:28:02.891Z,100015.69
2023-04-03T09:30:30.293Z,100011.97
2023-04-03T09:32:58.583Z,100014.03
2023-04-03T09:35:40.567Z,100009.53
2023-04-03T09:38:15.149Z,100013.41
2023-04-03T09:43:27.461Z,100005.16
2023-04-03T09:45:55.160Z,100008.75
2023-04-03T09:48:27.564Z,99997.47
2023-04-03T09:51:17.395Z,99995.72
2023-04-03T09:56:52.975Z,100001.44
2023-04-03T09:59:20.754Z,99998.03
2023-04-03T10:02:35.459Z,100000.44
2023-04-03T10:07:38.193Z,99984.31
2023-04-03T10:10:17.973Z,99999.41
2023-04-03T10:12:45.360Z,99994.88
2023-04-03T10:15:18.111Z,100000.09
2023-04-03T10:17:57.768Z,99993.94
2023-04-03T10:20:50.547Z,99991.25
2023-04-03T10:23:28.858Z,99988.78
2023-04-03T10:26:05.271Z,99987.59
2023-04-03T10:28:52.036Z,99992.09
2023-04-03T10:31:30.980Z,99994.72
2023-04-03T10:34:14.613Z,100002.66
2023-04-03T10:37:13.928Z,99989.31
2023-04-03T10:40:25.515Z,99996.44
2023-04-03T10:43:17.921Z,99996.44
2023-04-03T10:45:56.856Z,99985.66
2023-04-03T10:48:36.347Z,99981.88
2023-04-03T10:51:12.311Z,99983.94
2023-04-03T10:54:07.634Z,99983.25
2023-04-03T10:56:40.557Z,99983.91
2023-04-03T10:59:14.394Z,99982.75
2023-04-03T11:01:45.130Z,99984.44
2023-04-03T11:04:13.799Z,99985.06
2023-04-03T11:06:51.894Z,99987.50
2023-04-03T11:09:25.338Z,99988.34
2023-04-03T11:11:57.052Z,99986.50
2023-04-03T11:14:28.859Z,99981.47
2023-04-03T11:17:24.524Z,99978.78
2023-04-03T11:20:01.433Z,99968.44
2023-04-03T11:22:33.185Z,99979.63
2023-04-03T11:25:20.997Z,99978.28
2023-04-03T11:27:58.766Z,99974.09
2023-04-03T11:30:34.633Z,99966.44
2023-04-03T11:33:17.279Z,99966.56
2023-04-03T11:35:47.162Z,99946.50
2023-04-03T11:38:45.606Z,99958.72
2023-04-03T11:41:12.721Z,99961.72
2023-04-03T11:44:00.396Z,99958.75
2023-04-03T11:46:57.939Z,99958.50
2023-04-03T11:49:53.567Z,99951.72
2023-04-03T11:52:41.506Z,99952.75
2023-04-03T11:55:22.238Z,99945.00
2023-04-03T11:58:01.706Z,99952.16
2023-04-03T12:00:51.622Z,99957.72
2023-04-03T12:03:24.123Z,99953.22
2023-04-03T12:05:52.514Z,99956.31
2023-04-03T12:08:44.276Z,99946.72
2023-04-03T12:11:14.088Z,99941.28
2023-04-03T12:13:49.787Z,99952.22
2023-04-03T12:16:35.167Z,99940.16
2023-04-03T12:19:04.423Z,99938.25
2023-04-03T12:21:30.921Z,99936.16
2023-04-03T12:24:08.181Z,99937.84
2023-04-03T12:27:12.554Z,99928.69
2023-04-03T12:29:53.168Z,99935.56
2023-04-03T12:32:42.297Z,99931.44
2023-04-03T12:35:40.132Z,99933.47
2023-04-03T12:38:13.161Z,99934.28
2023-04-03T12:41:11.866Z,99932.66
2023-04-03T12:44:10.421Z,99936.88
2023-04-03T12:46:59.306Z,99924.59
2023-04-03T12:49:31.514Z,99929.62
2023-04-03T12:51:58.587Z,99934.19
2023-04-03T13:09:23.095Z,99910.22
2023-04-03T13:15:55.559Z,99905.38
2023-04-03T13:18:25.222Z,99902.41
2023-04-03T13:20:52.581Z,99903.50
2023-04-03T13:23:21.966Z,99894.44
2023-04-03T13:26:03.574Z,99894.97
2023-04-03T13:28:46.364Z,99891.81
2023-04-03T13:31:35.406Z,99882.50
2023-04-03T13:34:04.049Z,99883.62
2023-04-03T13:37:00.840Z,99892.28
2023-04-03T13:39:31.173Z,99888.84
2023-04-03T13:42:02.668Z,99898.06
2023-04-03T13:44:33.965Z,99889.03
2023-04-03T13:47:16.675Z,99880.69
2023-04-03T13:49:47.486Z,99883.22
2023-04-03T13:52:37.027Z,99882.31
2023-04-03T13:55:26.291Z,99874.38
2023-04-03T13:58:27.360Z,99868.97
2023-04-03T14:01:07.259Z,99877.22
2023-04-03T14:03:43.872Z,99873.22
2023-04-03T14:06:16.623Z,99875.38
2023-04-03T14:08:44.217Z,99871.47
2023-04-03T14:11:15.759Z,99868.06
2023-04-03T14:13:43.109Z,99869.91
2023-04-03T14:16:16.171Z,99875.69
2023-04-03T14:18:44.002Z,99873.97
2023-04-03T14:21:13.937Z,99869.06
2023-04-03T14:23:40.593Z,99863.78
2023-04-03T14:26:17.313Z,99863.63
2023-04-03T14:28:45.392Z,99868.28
2023-04-03T14:31:14.148Z,99861.84
2023-04-03T14:33:41.216Z,99860.72
2023-04-03T14:36:28.081Z,99863.19
2023-04-03T14:38:56.401Z,99865.13
2023-04-03T14:41:25.898Z,99864.63
2023-04-03T14:43:53.526Z,99862.06
2023-04-03T14:46:56.383Z,99864.41
2023-04-03T14:49:29.167Z,99864.37
2023-04-03T14:51:57.371Z,99864.22
2023-04-03T14:54:29.111Z,99873.25
2023-04-03T14:56:58.006Z,99868.34
2023-04-03T14:59:26.153Z,99866.75
2023-04-03T15:01:52.911Z,99868.88
2023-04-03T15:04:21.854Z,99868.59
2023-04-03T15:06:49.920Z,99870.31
2023-04-03T15:09:26.059Z,99868.41
2023-04-03T15:11:55.592Z,99867.25
2023-04-03T15:14:35.932Z,99866.78
2023-04-03T15:17:06.310Z,99874.31
2023-04-03T15:19:52.635Z,99866.94
2023-04-03T15:22:20.518Z,99871.34
2023-04-03T15:24:47.486Z,99866.88
2023-04-03T15:27:14.732Z,99867.81
2023-04-03T15:29:45.559Z,99872.72
2023-04-03T15:32:12.923Z,99869.84
2023-04-03T15:34:43.785Z,99866.00
2023-04-03T15:37:12.608Z,99860.97
2023-04-03T15:39:39.176Z,99863.81
2023-04-03T15:42:07.348Z,99857.34
2023-04-03T15:44:35.648Z,99865.97
2023-04-03T15:47:03.422Z,99860.38
2023-04-03T15:49:31.714Z,99860.59
2023-04-03T15:51:58.378Z,99865.88
2023-04-03T15:54:26.328Z,99865.31
2023-04-03T15:56:54.209Z,99871.69
2023-04-03T15:59:20.836Z,99877.03
2023-04-03T16:01:47.694Z,99877.84
2023-04-03T16:04:15.670Z,99876.22
2023-04-03T16:06:43.800Z,99887.19
2023-04-03T16:09:11.060Z,99885.00
2023-04-03T16:11:40.827Z,99876.34
2023-04-03T16:14:08.491Z,99877.47
2023-04-03T16:16:36.118Z,99875.00
2023-04-03T16:19:03.489Z,99872.56
2023-04-03T16:21:30.358Z,99882.34
2023-04-03T16:24:00.771Z,99879.91
2023-04-03T16:26:27.699Z,99871.47
2023-04-03T16:28:54.967Z,99873.94
2023-04-03T16:31:22.619Z,99883.41
2023-04-03T16:33:49.574Z,99887.28
2023-04-03T16:36:16.685Z,99890.78
2023-04-03T16:38:43.323Z,99897.91
2023-04-03T16:41:09.899Z,99899.53
2023-04-03T16:43:36.836Z,99905.53
2023-04-03T16:46:06.600Z,99904.97
2023-04-03T16:48:33.253Z,99899.47
2023-04-03T16:50:59.844Z,99897.88
2023-04-03T16:53:27.812Z,99902.81
2023-04-03T16:55:54.944Z,99901.41
2023-04-03T16:58:23.486Z,99898.91
2023-04-03T17:00:51.705Z,99913.31
2023-04-03T17:03:18.342Z,99907.63
2023-04-03T17:05:48.326Z,99915.53
2023-04-03T17:08:15.062Z,99931.34
2023-04-03T17:10:41.932Z,99932.78
2023-04-03T17:13:10.560Z,99946.91
2023-04-03T17:15:37.519Z,99957.16
2023-04-03T17:18:16.625Z,99958.88
2023-04-03T17:20:43.288Z,99968.66
2023-04-03T17:23:09.972Z,99976.50
2023-04-03T17:25:36.632Z,99984.72
2023-04-03T17:28:03.417Z,99980.91
2023-04-03T17:30:30.007Z,99985.50
2023-04-03T17:32:57.081Z,100006.13
2023-04-03T17:35:24.042Z,100006.97
2023-04-03T17:37:50.801Z,100008.78
2023-04-03T17:40:37.669Z,100015.16
2023-04-03T17:43:04.290Z,100028.00
2023-04-03T17:45:31.013Z,100034.66
2023-04-03T17:47:57.611Z,100027.97
2023-04-03T17:50:39.344Z,100034.28
2023-04-03T17:53:37.096Z,100045.81
2023-04-03T17:56:33.446Z,100049.66
2023-04-03T17:59:00.174Z,100067.50
2023-04-03T18:01:32.945Z,100075.28
2023-04-03T18:04:03.252Z,100085.38
2023-04-03T18:06:40.095Z,100086.22
2023-04-03T18:09:19.729Z,100096.47
2023-04-03T18:11:48.626Z,100096.84
2023-04-03T18:14:19.664Z,100094.94
2023-04-03T18:16:46.292Z,100097.91
2023-04-03T18:19:22.761Z,100091.84
2023-04-03T18:21:55.469Z,100099.72
2023-04-03T18:32:48.587Z,100125.69
2023-04-03T18:35:15.254Z,100125.84
2023-04-03T18:48:41.256Z,100141.41
2023-04-03T18:51:16.100Z,100141.50
2023-04-03T18:53:48.814Z,100147.31
2023-04-03T18:56:16.367Z,100142.19
2023-04-03T19:01:45.851Z,100145.22
2023-04-03T19:04:12.755Z,100149.31
2023-04-03T19:09:15.109Z,100150.06
2023-04-03T19:11:41.763Z,100144.06
2023-04-03T19:17:12.906Z,100150.91
2023-04-03T19:20:28.799Z,100151.94
2023-04-03T19:46:51.438Z,100176.16
2023-04-03T19:53:35.423Z,100159.13
2023-04-03T19:56:02.083Z,100164.19
2023-04-03T19:58:30.013Z,100158.13
2023-04-03T20:00:58.107Z,100149.44
2023-04-03T20:03:25.338Z,100149.03
2023-04-03T20:05:54.180Z,100160.13
2023-04-03T20:08:21.009Z,100156.00
2023-04-03T20:10:47.669Z,100140.62
2023-04-03T20:13:14.672Z,100150.47
2023-04-03T20:15:43.720Z,100140.62
2023-04-03T20:18:20.792Z,100155.78
2023-04-03T20:20:55.234Z,100146.72
2023-04-03T20:26:23.694Z,100147.56
2023-04-03T20:28:52.305Z,100146.72
2023-04-03T20:31:19.664Z,100150.25
2023-04-03T20:33:47.804Z,100157.19
2023-04-03T20:36:15.827Z,100164.00
2023-04-03T20:39:18.997Z,100164.69
2023-04-03T20:41:46.886Z,100152.59
2023-04-03T20:44:19.845Z,100162.56
2023-04-03T20:46:52.964Z,100163.78
2023-04-03T20:49:21.359Z,100158.59
2023-04-03T20:51:48.328Z,100162.91
2023-04-03T20:54:24.137Z,100176.34
2023-04-03T20:56:51.407Z,100160.22
2023-04-03T20:59:18.721Z,100162.00
2023-04-03T21:01:46.963Z,100151.78
2023-04-03T21:04:30.456Z,100152.25
2023-04-03T21:07:34.887Z,100159.16
2023-04-03T21:10:40.107Z,100159.28
2023-04-03T21:13:44.108Z,100155.03
2023-04-03T21:16:10.941Z,100144.97
2023-04-03T21:18:52.490Z,100151.41
2023-04-03T21:21:26.176Z,100142.97
2023-04-03T21:24:01.126Z,100147.66
2023-04-03T21:26:27.894Z,100151.28
2023-04-03T21:28:54.653Z,100155.66
2023-04-03T21:31:21.979Z,100146.13
2023-04-03T21:33:49.118Z,100148.41
2023-04-03T21:36:28.299Z,100159.25
2023-04-03T21:39:23.233Z,100151.88
2023-04-03T21:41:51.686Z,100150.69
2023-04-03T21:44:19.268Z,100144.12
2023-04-03T21:46:54.062Z,100137.28
2023-04-03T21:51:56.031Z,100133.88
2023-04-03T21:54:22.694Z,100135.25
2023-04-03T21:56:49.631Z,100132.56
2023-04-03T21:59:16.772Z,100126.38
2023-04-03T22:01:43.575Z,100134.44
2023-04-03T22:04:11.576Z,100126.78
2023-04-03T22:06:38.294Z,100125.50
2023-04-03T22:09:04.957Z,100124.41
2023-04-03T22:11:35.065Z,100118.66
2023-04-03T22:14:05.025Z,100119.28
2023-04-03T22:16:37.866Z,100116.00
2023-04-03T22:19:04.459Z,100110.53
2023-04-03T22:21:32.656Z,100116.75
2023-04-03T22:26:35.222Z,100113.00
2023-04-03T22:29:01.816Z,100116.78
2023-04-03T22:31:28.506Z,100117.22
2023-04-03T22:38:04.032Z,100114.63
2023-04-03T22:40:30.597Z,100114.19
2023-04-03T22:42:57.445Z,100119.34
2023-04-03T22:45:24.004Z,100124.22
2023-04-03T22:47:50.651Z,100131.91
2023-04-03T22:50:17.244Z,100123.66
2023-04-03T22:52:43.799Z,100126.84
2023-04-03T22:55:19.340Z,100125.47
2023-04-03T22:57:49.454Z,100132.50
2023-04-03T23:00:16.496Z,100126.88
2023-04-03T23:02:43.463Z,100126.69
2023-04-03T23:05:30.976Z,100127.75
2023-04-03T23:08:15.922Z,100125.50
2023-04-03T23:10:42.709Z,100133.84
2023-04-03T23:13:09.297Z,100133.13
2023-04-03T23:15:35.868Z,100128.75
2023-04-03T23:18:02.458Z,100128.50
2023-04-03T23:20:29.020Z,100128.09
2023-04-03T23:22:55.576Z,100134.12
2023-04-03T23:25:22.313Z,100120.44
2023-04-03T23:27:56.201Z,100120.69
2023-04-03T23:30:22.815Z,100117.03
2023-04-03T23:32:49.474Z,100106.25
2023-04-03T23:35:16.685Z,100111.16
2023-04-03T23:37:52.278Z,100111.97
2023-04-03T23:40:18.826Z,100120.69
2023-04-03T23:42:45.366Z,100118.44
2023-04-03T23:45:11.925Z,100119.25
2023-04-03T23:47:38.585Z,100116.22
2023-04-03T23:50:14.202Z,100114.97
